RJFN(METAR)
02/20 20:00
METAR RJFN 201100Z 21003KT 9999 FEW020 SCT025 BKN150 12/06 Q1019 RMK
1CU020 4CU025 6AC150 A3012=
戻る
トップページへ戻る
IMOC Co,.Ltd.